createdAt,value
2023-02-19T00:01:39.234Z,95375.38
2023-02-19T00:04:18.170Z,95366.16
2023-02-19T00:06:46.573Z,95383.78
2023-02-19T00:09:15.427Z,95364.03
2023-02-19T00:11:43.080Z,95364.72
2023-02-19T00:14:15.275Z,95350.38
2023-02-19T00:16:42.193Z,95359.72
2023-02-19T00:19:13.619Z,95364.03
2023-02-19T00:21:40.490Z,95345.34
2023-02-19T00:24:08.248Z,95363.09
2023-02-19T00:26:35.605Z,95355.63
2023-02-19T00:29:02.951Z,95337.09
2023-02-19T00:31:34.964Z,95351.25
2023-02-19T00:34:05.228Z,95330.06
2023-02-19T00:36:36.147Z,95356.56
2023-02-19T00:39:04.969Z,95354.47
2023-02-19T00:41:32.141Z,95337.44
2023-02-19T00:44:04.422Z,95333.94
2023-02-19T00:46:34.501Z,95342.56
2023-02-19T00:49:04.166Z,95321.78
2023-02-19T00:51:33.732Z,95313.28
2023-02-19T00:54:00.524Z,95320.63
2023-02-19T00:56:27.535Z,95314.06
2023-02-19T00:58:54.502Z,95313.94
2023-02-19T01:01:21.625Z,95325.72
2023-02-19T01:03:49.174Z,95326.53
2023-02-19T01:06:18.269Z,95322.09
2023-02-19T01:08:45.660Z,95321.38
2023-02-19T01:11:13.755Z,95331.41
2023-02-19T01:13:41.370Z,95317.06
2023-02-19T01:16:15.161Z,95321.16
2023-02-19T01:18:43.229Z,95312.47
2023-02-19T01:21:20.968Z,95316.69
2023-02-19T01:23:49.592Z,95318.78
2023-02-19T01:26:19.725Z,95322.72
2023-02-19T01:28:48.526Z,95332.75
2023-02-19T01:31:19.109Z,95325.63
2023-02-19T01:33:47.447Z,95333.88
2023-02-19T01:36:14.860Z,95331.44
2023-02-19T01:38:42.129Z,95326.41
2023-02-19T01:41:12.969Z,95333.69
2023-02-19T01:44:08.119Z,95347.22
2023-02-19T01:46:38.286Z,95364.50
2023-02-19T01:49:10.901Z,95358.69
2023-02-19T01:51:43.766Z,95369.88
2023-02-19T01:54:14.136Z,95356.47
2023-02-19T01:56:44.174Z,95377.00
2023-02-19T01:59:12.890Z,95359.28
2023-02-19T02:01:41.270Z,95339.78
2023-02-19T02:04:11.196Z,95360.31
2023-02-19T02:06:49.999Z,95360.44
2023-02-19T02:09:37.996Z,95365.03
2023-02-19T02:12:05.174Z,95365.03
2023-02-19T02:14:36.616Z,95347.88
2023-02-19T02:17:38.539Z,95370.25
2023-02-19T02:20:27.955Z,95354.72
2023-02-19T02:23:29.377Z,95363.13
2023-02-19T02:26:04.721Z,95352.84
2023-02-19T02:28:40.709Z,95356.09
2023-02-19T02:31:11.504Z,95370.56
2023-02-19T02:33:47.824Z,95354.72
2023-02-19T02:36:40.380Z,95373.97
2023-02-19T02:39:13.036Z,95362.06
2023-02-19T02:41:46.036Z,95371.41
2023-02-19T02:44:13.313Z,95372.22
2023-02-19T02:46:45.145Z,95364.75
2023-02-19T02:49:20.454Z,95372.44
2023-02-19T02:51:52.278Z,95371.41
2023-02-19T02:54:51.964Z,95375.25
2023-02-19T02:57:21.571Z,95373.75
2023-02-19T02:59:56.657Z,95351.50
2023-02-19T03:02:28.786Z,95370.88
2023-02-19T03:05:47.476Z,95372.16
2023-02-19T03:08:20.840Z,95377.66
2023-02-19T03:10:55.513Z,95379.09
2023-02-19T03:13:47.462Z,95381.06
2023-02-19T03:16:48.038Z,95371.72
2023-02-19T03:19:21.423Z,95365.66
2023-02-19T03:21:59.971Z,95373.25
2023-02-19T03:25:10.721Z,95372.56
2023-02-19T03:27:41.871Z,95383.88
2023-02-19T03:30:18.627Z,95388.88
2023-02-19T03:33:14.593Z,95398.44
2023-02-19T03:36:05.539Z,95398.69
2023-02-19T03:38:46.626Z,95404.28
2023-02-19T03:41:26.611Z,95409.09
2023-02-19T03:44:08.601Z,95410.38
2023-02-19T03:46:39.634Z,95407.09
2023-02-19T03:49:19.151Z,95411.63
2023-02-19T03:51:53.977Z,95420.53
2023-02-19T03:54:26.404Z,95414.00
2023-02-19T03:57:04.129Z,95421.09
2023-02-19T03:59:38.633Z,95419.91
2023-02-19T04:02:23.888Z,95419.00
2023-02-19T04:04:59.277Z,95423.88
2023-02-19T04:07:28.383Z,95426.59
2023-02-19T04:09:55.674Z,95429.47
2023-02-19T04:12:24.529Z,95423.16
2023-02-19T04:15:00.231Z,95428.28
2023-02-19T04:17:32.424Z,95426.72
2023-02-19T04:20:02.274Z,95421.06
2023-02-19T04:22:29.766Z,95421.56
2023-02-19T04:24:56.930Z,95427.56
2023-02-19T04:27:23.743Z,95427.56
2023-02-19T04:29:50.531Z,95431.09
2023-02-19T04:32:17.436Z,95421.28
2023-02-19T04:34:44.450Z,95422.72
2023-02-19T04:37:11.567Z,95433.59
2023-02-19T04:39:38.334Z,95431.19
2023-02-19T04:42:05.611Z,95432.16
2023-02-19T04:44:34.612Z,95440.50
2023-02-19T04:47:01.706Z,95435.88
2023-02-19T04:49:28.755Z,95445.66
2023-02-19T04:51:55.585Z,95434.16
2023-02-19T05:59:26.750Z,95465.06
2023-02-19T06:01:55.464Z,95476.03
2023-02-19T06:04:23.612Z,95477.38
2023-02-19T06:06:50.967Z,95478.19
2023-02-19T06:09:17.940Z,95486.81
2023-02-19T06:11:45.343Z,95490.34
2023-02-19T06:14:15.158Z,95492.88
2023-02-19T06:16:42.538Z,95501.53
2023-02-19T06:19:10.036Z,95500.00
2023-02-19T06:21:37.122Z,95496.84
2023-02-19T06:24:08.522Z,95505.66
2023-02-19T06:26:35.897Z,95501.78
2023-02-19T06:29:02.798Z,95503.13
2023-02-19T06:31:29.853Z,95498.34
2023-02-19T06:33:56.821Z,95507.81
2023-02-19T06:36:25.322Z,95497.31
2023-02-19T06:38:52.414Z,95497.84
2023-02-19T06:41:19.457Z,95498.75
2023-02-19T06:43:46.806Z,95500.56
2023-02-19T06:46:14.250Z,95481.00
2023-02-19T06:48:42.908Z,95497.47
2023-02-19T06:51:13.387Z,95504.63
2023-02-19T07:30:35.711Z,95494.25
2023-02-19T07:33:02.886Z,95498.56
2023-02-19T07:35:29.744Z,95494.94
2023-02-19T07:37:56.668Z,95494.59
2023-02-19T07:40:23.496Z,95490.84
2023-02-19T07:42:50.400Z,95489.78
2023-02-19T07:45:17.524Z,95489.72
2023-02-19T07:47:47.586Z,95494.38
2023-02-19T07:50:17.604Z,95479.56
2023-02-19T07:52:44.430Z,95478.25
2023-02-19T07:55:11.376Z,95482.06
2023-02-19T07:57:38.246Z,95478.53
2023-02-19T08:00:05.458Z,95478.16
2023-02-19T08:02:57.618Z,95484.31
2023-02-19T08:05:24.705Z,95479.38
2023-02-19T08:07:51.882Z,95471.50
2023-02-19T08:10:37.276Z,95471.34
2023-02-19T08:13:19.501Z,95475.00
2023-02-19T08:15:47.155Z,95466.91
2023-02-19T08:18:15.347Z,95462.06
2023-02-19T08:20:43.045Z,95473.78
2023-02-19T08:23:10.636Z,95467.84
2023-02-19T08:25:38.839Z,95464.94
2023-02-19T08:28:07.183Z,95465.06
2023-02-19T08:30:35.227Z,95468.41
2023-02-19T08:33:02.626Z,95465.66
2023-02-19T08:35:29.831Z,95463.41
2023-02-19T08:37:59.664Z,95463.38
2023-02-19T08:40:26.745Z,95460.31
2023-02-19T08:42:53.674Z,95458.25
2023-02-19T08:45:20.539Z,95455.41
2023-02-19T08:47:47.553Z,95460.06
2023-02-19T08:50:14.406Z,95445.75
2023-02-19T08:52:41.299Z,95447.34
2023-02-19T08:55:08.725Z,95449.44
2023-02-19T08:57:37.784Z,95439.63
2023-02-19T09:00:06.787Z,95438.91
2023-02-19T09:02:33.786Z,95434.09
2023-02-19T09:05:01.040Z,95433.44
2023-02-19T09:07:28.574Z,95423.75
2023-02-19T09:09:55.558Z,95426.22
2023-02-19T09:12:23.688Z,95419.75
2023-02-19T09:14:53.297Z,95418.16
2023-02-19T09:17:20.154Z,95409.03
2023-02-19T09:19:48.944Z,95408.69
2023-02-19T09:22:17.203Z,95413.28
2023-02-19T09:24:44.819Z,95412.13
2023-02-19T09:27:19.478Z,95413.38
2023-02-19T09:29:47.226Z,95405.44
2023-02-19T09:32:14.756Z,95411.44
2023-02-19T09:34:41.902Z,95403.09
2023-02-19T09:37:08.925Z,95401.59
2023-02-19T09:39:36.053Z,95411.69
2023-02-19T09:42:33.189Z,95400.44
2023-02-19T09:45:02.001Z,95404.06
2023-02-19T09:47:31.558Z,95404.81
2023-02-19T09:50:09.881Z,95397.97
2023-02-19T09:52:36.663Z,95385.66
2023-02-19T09:55:14.567Z,95395.88
2023-02-19T09:57:43.212Z,95376.81
2023-02-19T10:00:24.108Z,95357.09
2023-02-19T10:03:22.056Z,95358.81
2023-02-19T10:05:49.093Z,95349.72
2023-02-19T10:08:20.658Z,95354.22
2023-02-19T10:10:47.567Z,95346.63
2023-02-19T10:13:29.832Z,95343.69
2023-02-19T10:15:59.225Z,95337.75
2023-02-19T10:18:29.563Z,95327.06
2023-02-19T10:20:57.922Z,95323.88
2023-02-19T10:23:26.128Z,95319.69
2023-02-19T10:25:57.350Z,95308.28
2023-02-19T10:28:30.197Z,95303.72
2023-02-19T10:30:59.585Z,95289.66
2023-02-19T10:33:26.966Z,95299.91
2023-02-19T10:36:03.913Z,95299.72
2023-02-19T10:38:34.473Z,95290.47
2023-02-19T10:41:27.869Z,95282.22
2023-02-19T10:43:56.370Z,95271.75
2023-02-19T10:46:27.022Z,95256.66
2023-02-19T10:49:04.148Z,95262.91
2023-02-19T10:51:36.482Z,95258.16
2023-02-19T10:54:29.237Z,95244.50
2023-02-19T10:57:25.573Z,95254.41
2023-02-19T10:59:58.918Z,95240.09
2023-02-19T11:02:27.367Z,95234.09
2023-02-19T11:05:09.538Z,95226.03
2023-02-19T11:07:37.701Z,95218.38
2023-02-19T11:10:07.343Z,95211.75
2023-02-19T11:12:35.436Z,95211.75
2023-02-19T11:15:25.483Z,95209.53
2023-02-19T11:17:56.710Z,95202.84
2023-02-19T11:20:24.375Z,95192.56
2023-02-19T11:22:51.716Z,95187.13
2023-02-19T11:25:21.084Z,95184.47
2023-02-19T11:27:58.319Z,95187.38
2023-02-19T11:30:36.014Z,95176.38
2023-02-19T11:33:22.278Z,95157.41
2023-02-19T11:35:55.565Z,95163.53
2023-02-19T11:38:22.619Z,95151.97
2023-02-19T11:40:59.628Z,95141.09
2023-02-19T11:43:45.159Z,95144.34
2023-02-19T11:46:34.955Z,95138.94
2023-02-19T11:49:01.978Z,95140.28
2023-02-19T11:51:31.986Z,95139.91
2023-02-19T11:54:29.536Z,95140.06
2023-02-19T11:57:15.096Z,95142.44
2023-02-19T11:59:53.123Z,95131.06
2023-02-19T12:02:28.708Z,95127.53
2023-02-19T12:05:08.449Z,95119.47
2023-02-19T12:07:47.317Z,95117.66
2023-02-19T12:10:17.139Z,95106.69
2023-02-19T12:13:02.217Z,95108.53
2023-02-19T12:16:13.638Z,95095.50
2023-02-19T12:19:25.368Z,95090.28
2023-02-19T12:22:12.231Z,95085.88
2023-02-19T12:25:08.174Z,95083.00
2023-02-19T12:27:43.887Z,95084.84
2023-02-19T12:30:32.059Z,95070.44
2023-02-19T12:33:03.339Z,95071.00
2023-02-19T12:35:46.600Z,95064.66
2023-02-19T12:38:25.228Z,95043.91
2023-02-19T12:41:41.440Z,95045.97
2023-02-19T12:44:20.291Z,95042.66
2023-02-19T12:46:53.092Z,95040.06
2023-02-19T12:49:42.528Z,95031.19
2023-02-19T12:52:20.744Z,95027.22
2023-02-19T12:54:58.137Z,95021.09
2023-02-19T12:57:29.963Z,95016.72
2023-02-19T13:00:39.586Z,95013.66
2023-02-19T13:03:21.176Z,95004.59
2023-02-19T13:06:07.620Z,95001.25
2023-02-19T13:08:53.022Z,94999.13
2023-02-19T13:11:57.047Z,94993.72
2023-02-19T13:14:46.713Z,94988.75
2023-02-19T13:17:44.073Z,94980.22
2023-02-19T13:20:25.068Z,94990.38
2023-02-19T13:23:16.733Z,94990.03
2023-02-19T13:26:05.088Z,94974.41
2023-02-19T13:28:45.382Z,94968.41
2023-02-19T13:31:54.375Z,94957.44
2023-02-19T13:34:27.029Z,94954.38
2023-02-19T13:36:55.577Z,94945.78
2023-02-19T13:39:23.506Z,94948.34
2023-02-19T13:41:53.471Z,94948.22
2023-02-19T13:44:29.022Z,94940.97
2023-02-19T13:46:56.713Z,94943.91
2023-02-19T13:49:36.823Z,94938.16
2023-02-19T13:52:29.680Z,94944.13
2023-02-19T13:55:34.433Z,94939.84
2023-02-19T13:58:52.282Z,94941.06
2023-02-19T14:01:19.535Z,94940.53
2023-02-19T14:03:53.654Z,94935.06
2023-02-19T14:06:20.945Z,94926.09
2023-02-19T14:08:53.580Z,94931.25
2023-02-19T14:11:43.047Z,94926.81
2023-02-19T14:14:24.960Z,94926.19
2023-02-19T14:16:56.139Z,94927.72
2023-02-19T14:19:43.381Z,94921.06
2023-02-19T14:22:55.669Z,94911.44
2023-02-19T14:25:31.969Z,94909.50
2023-02-19T14:28:12.091Z,94895.44
2023-02-19T14:30:59.214Z,94888.69
2023-02-19T14:33:29.660Z,94889.41
2023-02-19T14:36:16.955Z,94895.50
2023-02-19T14:38:58.290Z,94906.09
2023-02-19T14:41:27.412Z,94897.53
2023-02-19T14:43:58.648Z,94893.81
2023-02-19T14:46:32.644Z,94877.22
2023-02-19T14:49:21.792Z,94884.34
2023-02-19T14:51:53.986Z,94880.31
2023-02-19T14:54:48.440Z,94882.66
2023-02-19T14:57:22.276Z,94866.81
2023-02-19T14:59:55.270Z,94875.53
2023-02-19T15:02:24.117Z,94882.66
2023-02-19T15:04:51.055Z,94868.16
2023-02-19T15:07:36.529Z,94875.66
2023-02-19T15:10:05.965Z,94875.28
2023-02-19T15:12:46.166Z,94877.13
2023-02-19T15:15:22.397Z,94878.97
2023-02-19T15:17:51.096Z,94880.47
2023-02-19T15:20:24.672Z,94872.22
2023-02-19T15:22:53.126Z,94886.13
2023-02-19T15:25:22.520Z,94883.84
2023-02-19T15:27:49.937Z,94874.09
2023-02-19T15:30:24.702Z,94875.44
2023-02-19T15:32:54.527Z,94883.19
2023-02-19T15:35:23.406Z,94881.81
2023-02-19T15:37:51.732Z,94893.59
2023-02-19T15:40:20.430Z,94893.47
2023-02-19T15:42:47.900Z,94905.00
2023-02-19T15:45:23.905Z,94916.72
2023-02-19T15:48:11.006Z,94912.72
2023-02-19T15:50:44.471Z,94914.38
2023-02-19T15:53:22.051Z,94914.19
2023-02-19T15:55:57.878Z,94924.06
2023-02-19T15:58:33.140Z,94929.91
2023-02-19T16:01:04.253Z,94932.34
2023-02-19T16:03:32.253Z,94939.78
2023-02-19T16:06:04.427Z,94935.97
2023-02-19T16:08:38.505Z,94940.38
2023-02-19T16:11:23.560Z,94938.13
2023-02-19T16:13:51.196Z,94944.16
2023-02-19T16:16:31.685Z,94946.56
2023-02-19T16:18:58.670Z,94945.94
2023-02-19T16:21:27.861Z,94948.91
2023-02-19T16:24:04.010Z,94949.28
2023-02-19T16:26:39.376Z,94937.97
2023-02-19T16:29:21.845Z,94947.78
2023-02-19T16:31:54.825Z,94952.97
2023-02-19T16:34:41.506Z,94967.22
2023-02-19T16:37:34.585Z,94974.94
2023-02-19T16:40:07.671Z,94979.34
2023-02-19T16:43:06.898Z,94979.47
2023-02-19T16:45:33.935Z,94971.56
2023-02-19T16:48:00.872Z,94976.91
2023-02-19T16:50:27.893Z,94984.72
2023-02-19T16:52:57.172Z,94991.63
2023-02-19T16:55:23.978Z,94989.97
2023-02-19T16:57:51.182Z,94992.72
2023-02-19T17:00:24.061Z,94993.72
2023-02-19T17:02:57.300Z,94996.69
2023-02-19T17:05:26.556Z,95000.28
2023-02-19T17:07:53.635Z,95003.03
2023-02-19T17:10:25.837Z,95007.00
2023-02-19T17:12:54.384Z,95003.53
2023-02-19T17:15:22.399Z,94997.69
2023-02-19T17:17:49.685Z,95009.69
2023-02-19T17:20:16.547Z,95016.06
2023-02-19T17:22:44.408Z,95014.81
2023-02-19T17:25:11.431Z,95013.38
2023-02-19T17:27:38.269Z,95029.00
2023-02-19T17:30:14.166Z,95036.38
2023-02-19T17:32:41.182Z,95041.94
2023-02-19T17:35:08.506Z,95042.44
2023-02-19T17:37:51.855Z,95029.63
2023-02-19T17:40:32.860Z,95040.50
2023-02-19T17:43:00.693Z,95051.81
2023-02-19T17:45:27.684Z,95057.72
2023-02-19T17:47:54.614Z,95041.06
2023-02-19T17:50:26.624Z,95054.75
2023-02-19T17:52:53.677Z,95060.78
2023-02-19T17:55:20.684Z,95050.63
2023-02-19T17:57:49.069Z,95060.50
2023-02-19T18:00:19.397Z,95068.00
2023-02-19T18:02:46.320Z,95060.22
2023-02-19T18:05:13.437Z,95062.47
2023-02-19T18:07:40.766Z,95070.88
2023-02-19T18:10:08.591Z,95077.25
2023-02-19T18:12:35.866Z,95083.59
2023-02-19T18:15:02.743Z,95091.13
2023-02-19T18:17:29.660Z,95091.13
2023-02-19T18:19:56.667Z,95086.91
2023-02-19T18:22:23.552Z,95093.13
2023-02-19T18:24:54.056Z,95095.53
2023-02-19T18:27:20.889Z,95093.13
2023-02-19T18:29:55.727Z,95105.91
2023-02-19T18:32:24.769Z,95108.97
2023-02-19T18:34:53.674Z,95113.38
2023-02-19T18:37:21.901Z,95112.56
2023-02-19T18:39:48.890Z,95107.09
2023-02-19T18:42:16.101Z,95123.31
2023-02-19T18:44:43.509Z,95120.28
2023-02-19T18:47:11.645Z,95114.28
2023-02-19T18:49:38.578Z,95116.25
2023-02-19T18:52:05.924Z,95120.16
2023-02-19T18:54:33.135Z,95126.69
2023-02-19T18:57:04.564Z,95128.00
2023-02-19T18:59:36.422Z,95142.38
2023-02-19T19:02:05.227Z,95144.84
2023-02-19T19:04:32.185Z,95146.97
2023-02-19T19:06:59.087Z,95151.09
2023-02-19T19:09:25.948Z,95164.44
2023-02-19T19:11:52.876Z,95163.97
2023-02-19T19:14:19.950Z,95164.31
2023-02-19T19:16:46.840Z,95178.28
2023-02-19T19:19:14.792Z,95175.03
2023-02-19T19:21:41.676Z,95182.19
2023-02-19T19:24:09.282Z,95183.81
2023-02-19T19:26:36.168Z,95192.91
2023-02-19T19:29:03.128Z,95192.47
2023-02-19T19:31:35.775Z,95193.78
2023-02-19T19:34:03.428Z,95194.28
2023-02-19T19:36:30.373Z,95202.75
2023-02-19T19:38:57.415Z,95200.50
2023-02-19T19:41:24.311Z,95196.81
2023-02-19T19:43:51.210Z,95189.50
2023-02-19T19:46:21.572Z,95204.16
2023-02-19T19:48:50.723Z,95200.28
2023-02-19T19:51:17.841Z,95205.16
2023-02-19T19:53:48.109Z,95204.47
2023-02-19T19:56:16.024Z,95212.25
2023-02-19T19:58:42.915Z,95215.84
2023-02-19T20:01:09.997Z,95215.03
2023-02-19T20:03:39.780Z,95222.66
2023-02-19T20:06:06.988Z,95223.63
2023-02-19T20:08:33.765Z,95231.41
2023-02-19T20:11:00.593Z,95231.41
2023-02-19T20:13:30.584Z,95233.84
2023-02-19T20:15:58.004Z,95235.63
2023-02-19T20:18:26.122Z,95232.38
2023-02-19T20:20:53.069Z,95229.50
2023-02-19T20:23:20.564Z,95227.19
2023-02-19T20:25:47.360Z,95249.75
2023-02-19T20:28:14.273Z,95249.63
2023-02-19T20:30:42.193Z,95260.28
2023-02-19T20:33:09.568Z,95255.09
2023-02-19T20:35:36.468Z,95256.06
2023-02-19T20:38:03.288Z,95252.50
2023-02-19T20:40:31.514Z,95254.47
2023-02-19T20:43:00.910Z,95254.16
2023-02-19T20:45:28.631Z,95259.19
2023-02-19T20:47:55.488Z,95264.53
2023-02-19T20:50:23.508Z,95271.50
2023-02-19T20:52:50.384Z,95277.50
2023-02-19T20:55:17.313Z,95294.22
2023-02-19T20:57:44.154Z,95287.53
2023-02-19T21:00:11.596Z,95284.31
2023-02-19T21:02:38.515Z,95285.97
2023-02-19T21:05:05.685Z,95277.19
2023-02-19T21:07:32.556Z,95273.97
2023-02-19T21:09:59.445Z,95281.59
2023-02-19T21:12:26.336Z,95289.56
2023-02-19T21:14:53.277Z,95285.31
2023-02-19T21:17:20.248Z,95290.69
2023-02-19T21:19:50.050Z,95292.78
2023-02-19T21:22:17.115Z,95286.94
2023-02-19T21:24:44.724Z,95286.94
2023-02-19T21:27:11.728Z,95277.88
2023-02-19T21:29:38.587Z,95283.06
2023-02-19T21:32:05.868Z,95288.59
2023-02-19T21:34:33.008Z,95297.66
2023-02-19T21:37:00.107Z,95299.75
2023-02-19T21:39:28.273Z,95303.50
2023-02-19T21:41:55.156Z,95303.34
2023-02-19T21:44:22.006Z,95295.72
2023-02-19T21:46:49.102Z,95303.47
2023-02-19T21:49:16.909Z,95308.34
2023-02-19T21:51:45.300Z,95308.81
2023-02-19T21:54:22.081Z,95304.56
2023-02-19T21:56:49.032Z,95316.56
2023-02-19T21:59:16.275Z,95318.03
2023-02-19T22:01:43.573Z,95330.34
2023-02-19T22:04:14.788Z,95333.09
2023-02-19T22:06:42.552Z,95329.03
2023-02-19T22:09:11.091Z,95324.16
2023-02-19T22:11:38.363Z,95331.28
2023-02-19T22:14:05.227Z,95340.00
2023-02-19T22:16:32.184Z,95343.88
2023-02-19T22:19:00.069Z,95335.28
2023-02-19T22:21:32.457Z,95344.84
2023-02-19T22:24:00.701Z,95358.25
2023-02-19T22:26:33.988Z,95352.91
2023-02-19T22:29:06.049Z,95359.34
2023-02-19T22:31:33.662Z,95364.47
2023-02-19T22:34:00.558Z,95360.72
2023-02-19T22:36:31.174Z,95369.75
2023-02-19T22:38:58.096Z,95364.06
2023-02-19T22:41:25.536Z,95372.50
2023-02-19T22:43:55.669Z,95374.13
2023-02-19T22:46:25.011Z,95379.03
2023-02-19T22:48:51.759Z,95379.31
2023-02-19T22:51:21.108Z,95380.81
2023-02-19T22:53:52.242Z,95379.16
2023-02-19T22:56:20.707Z,95377.69
2023-02-19T22:58:47.685Z,95375.53
2023-02-19T23:01:15.092Z,95373.09
2023-02-19T23:03:52.825Z,95364.66
2023-02-19T23:06:31.823Z,95363.19
2023-02-19T23:09:05.480Z,95356.53
2023-02-19T23:11:34.756Z,95357.06
2023-02-19T23:14:02.166Z,95359.63
2023-02-19T23:16:29.436Z,95358.00
2023-02-19T23:18:56.276Z,95359.91
2023-02-19T23:21:23.394Z,95363.91
2023-02-19T23:23:50.292Z,95356.44
2023-02-19T23:26:17.509Z,95356.78
2023-02-19T23:28:44.864Z,95360.63
2023-02-19T23:31:12.556Z,95363.38
2023-02-19T23:33:39.528Z,95355.75
2023-02-19T23:36:07.031Z,95366.41
2023-02-19T23:38:34.130Z,95359.38
2023-02-19T23:41:01.430Z,95356.97
2023-02-19T23:43:28.818Z,95365.84
2023-02-19T23:45:55.910Z,95354.84
2023-02-19T23:48:22.766Z,95376.50
2023-02-19T23:50:49.629Z,95372.28
2023-02-19T23:53:16.555Z,95392.97
2023-02-19T23:55:43.376Z,95388.59
2023-02-19T23:58:10.273Z,95394.88
